Time,TemperatureF,DewpointF,PressureIn,WindDirection,WindDirectionDegrees,WindSpeedMPH,WindSpeedGustMPH,Humidity,HourlyPrecipIn,Conditions,Clouds,dailyrainin,SoftwareType,DateUTC
2013-12-19 00:03:00,23.3,19.4,30.13,NNE,23,3.1,6.7,85,0.00,,,0.00,WUHU216HW,2013-12-19 07:03:00,
2013-12-19 00:08:00,22.6,18.3,30.14,NNE,23,3.8,7.3,84,0.00,,,0.00,WUHU216HW,2013-12-19 07:08:00,
2013-12-19 00:13:00,21.7,17.8,30.14,ENE,68,6.9,10.0,85,0.00,,,0.00,WUHU216HW,2013-12-19 07:13:00,
2013-12-19 00:18:00,21.0,17.1,30.14,North,0,4.0,6.9,85,0.00,,,0.00,WUHU216HW,2013-12-19 07:18:00,
2013-12-19 00:23:00,20.8,16.9,30.14,NNE,23,4.9,4.9,85,0.00,,,0.00,WUHU216HW,2013-12-19 07:23:00,
2013-12-19 00:28:00,20.1,16.2,30.14,NNE,23,1.3,9.1,85,0.00,,,0.00,WUHU216HW,2013-12-19 07:28:00,
2013-12-19 00:33:00,19.7,15.8,30.14,NNW,338,0.2,9.1,85,0.00,,,0.00,WUHU216HW,2013-12-19 07:33:00,
2013-12-19 00:38:00,19.2,15.6,30.14,NNW,338,1.7,7.8,86,0.00,,,0.00,WUHU216HW,2013-12-19 07:38:00,
2013-12-19 00:43:00,19.0,15.4,30.15,NNE,23,5.8,7.8,86,0.00,,,0.00,WUHU216HW,2013-12-19 07:43:00,
2013-12-19 00:48:00,18.6,15.0,30.15,NNE,23,1.1,7.6,86,0.00,,,0.00,WUHU216HW,2013-12-19 07:48:00,
2013-12-19 00:53:00,18.3,14.4,30.15,East,90,0.0,5.8,85,0.00,,,0.00,WUHU216HW,2013-12-19 07:53:00,
2013-12-19 00:58:00,18.1,14.2,30.15,NE,45,1.7,7.6,85,0.00,,,0.00,WUHU216HW,2013-12-19 07:58:00,
2013-12-19 01:03:00,17.9,14.0,30.16,East,90,3.3,7.6,85,0.00,,,0.00,WUHU216HW,2013-12-19 08:03:00,
2013-12-19 01:08:00,17.7,13.9,30.16,SE,135,0.0,9.6,85,0.00,,,0.00,WUHU216HW,2013-12-19 08:08:00,
2013-12-19 01:13:00,17.4,13.2,30.16,NE,45,5.3,9.6,84,0.00,,,0.00,WUHU216HW,2013-12-19 08:13:00,
2013-12-19 01:18:00,17.4,13.2,30.16,NE,45,2.9,6.9,84,0.00,,,0.00,WUHU216HW,2013-12-19 08:18:00,
2013-12-19 01:24:00,17.2,13.1,30.16,NE,45,0.0,6.9,84,0.00,,,0.00,WUHU216HW,2013-12-19 08:24:00,
2013-12-19 01:29:00,16.8,12.7,30.16,NNE,23,5.8,6.0,84,0.00,,,0.00,WUHU216HW,2013-12-19 08:29:00,
2013-12-19 01:34:00,16.8,12.7,30.17,North,0,5.5,8.5,84,0.00,,,0.00,WUHU216HW,2013-12-19 08:34:00,
2013-12-19 01:39:00,16.3,12.2,30.17,East,90,9.3,9.3,84,0.00,,,0.00,WUHU216HW,2013-12-19 08:39:00,
2013-12-19 01:44:00,16.1,12.0,30.17,NNE,23,0.0,9.3,84,0.00,,,0.00,WUHU216HW,2013-12-19 08:44:00,
2013-12-19 01:49:00,16.1,12.0,30.18,SE,135,5.3,9.8,84,0.00,,,0.00,WUHU216HW,2013-12-19 08:49:00,
2013-12-19 01:54:00,15.9,11.9,30.18,NNE,23,9.6,9.8,84,0.00,,,0.00,WUHU216HW,2013-12-19 08:54:00,
2013-12-19 01:59:00,15.9,12.1,30.18,NNW,338,1.5,9.6,85,0.00,,,0.00,WUHU216HW,2013-12-19 08:59:00,
2013-12-19 02:04:00,16.1,12.3,30.18,NE,45,2.4,8.0,85,0.00,,,0.00,WUHU216HW,2013-12-19 09:04:00,
2013-12-19 02:09:00,16.1,12.0,30.18,East,90,2.4,8.0,84,0.00,,,0.00,WUHU216HW,2013-12-19 09:09:00,
2013-12-19 02:14:00,16.1,12.0,30.18,NW,315,0.0,10.9,84,0.00,,,0.00,WUHU216HW,2013-12-19 09:14:00,
2013-12-19 02:19:00,16.1,11.9,30.18,East,90,2.9,11.4,83,0.00,,,0.00,WUHU216HW,2013-12-19 09:19:00,
2013-12-19 02:24:00,15.9,11.6,30.19,NNE,23,3.1,11.4,83,0.00,,,0.00,WUHU216HW,2013-12-19 09:24:00,
2013-12-19 02:29:00,15.6,11.5,30.19,ESE,113,4.9,7.6,84,0.00,,,0.00,WUHU216HW,2013-12-19 09:29:00,
2013-12-19 02:34:00,15.6,11.4,30.20,SSW,203,2.9,9.3,84,0.00,,,0.00,WUHU216HW,2013-12-19 09:34:00,
2013-12-19 02:39:00,15.6,11.8,30.20,ESE,113,0.0,9.3,85,0.00,,,0.00,WUHU216HW,2013-12-19 09:39:00,
2013-12-19 02:44:00,15.4,11.6,30.21,SSE,158,4.9,5.8,85,0.00,,,0.00,WUHU216HW,2013-12-19 09:44:00,
2013-12-19 02:49:00,15.4,11.6,30.21,East,90,6.0,6.0,85,0.00,,,0.00,WUHU216HW,2013-12-19 09:49:00,
2013-12-19 02:54:00,15.4,11.4,30.20,East,90,5.3,13.6,85,0.00,,,0.00,WUHU216HW,2013-12-19 09:54:00,
2013-12-19 02:59:00,15.2,11.4,30.20,NE,45,1.7,13.6,85,0.00,,,0.00,WUHU216HW,2013-12-19 09:59:00,
2013-12-19 03:05:00,15.0,11.0,30.20,NNW,338,1.7,9.8,84,0.00,,,0.00,WUHU216HW,2013-12-19 10:05:00,
2013-12-19 03:10:00,14.9,10.9,30.21,NNE,23,3.5,9.8,84,0.00,,,0.00,WUHU216HW,2013-12-19 10:10:00,
2013-12-19 03:15:00,14.7,10.7,30.22,North,0,0.0,8.5,84,0.00,,,0.00,WUHU216HW,2013-12-19 10:15:00,
2013-12-19 03:20:00,14.5,10.5,30.22,NE,45,2.0,8.0,84,0.00,,,0.00,WUHU216HW,2013-12-19 10:20:00,
2013-12-19 03:25:00,14.1,10.2,30.22,NE,45,3.5,5.3,84,0.00,,,0.00,WUHU216HW,2013-12-19 10:25:00,
2013-12-19 03:30:00,14.1,9.9,30.22,ENE,68,6.0,6.0,83,0.00,,,0.00,WUHU216HW,2013-12-19 10:30:00,
2013-12-19 03:35:00,14.1,9.9,30.23,NE,45,6.0,9.6,83,0.00,,,0.00,WUHU216HW,2013-12-19 10:35:00,
2013-12-19 03:40:00,14.1,9.9,30.22,SE,135,0.0,10.7,82,0.00,,,0.00,WUHU216HW,2013-12-19 10:40:00,
2013-12-19 03:45:00,14.1,9.6,30.22,SSE,158,2.6,10.7,82,0.00,,,0.00,WUHU216HW,2013-12-19 10:45:00,
2013-12-19 03:50:00,14.1,9.6,30.23,NNE,23,3.5,7.8,82,0.00,,,0.00,WUHU216HW,2013-12-19 10:50:00,
2013-12-19 03:55:00,14.1,9.6,30.23,NE,45,5.1,9.3,82,0.00,,,0.00,WUHU216HW,2013-12-19 10:55:00,
2013-12-19 04:00:00,13.8,9.0,30.23,North,0,1.7,9.3,81,0.00,,,0.00,WUHU216HW,2013-12-19 11:00:00,
2013-12-19 04:05:00,13.8,9.0,30.23,NE,45,5.3,10.9,81,0.00,,,0.00,WUHU216HW,2013-12-19 11:05:00,
2013-12-19 04:10:00,13.8,9.0,30.23,East,90,4.4,10.9,81,0.00,,,0.00,WUHU216HW,2013-12-19 11:10:00,
2013-12-19 04:15:00,13.8,9.0,30.23,NNE,23,3.3,8.9,81,0.00,,,0.00,WUHU216HW,2013-12-19 11:15:00,
2013-12-19 04:20:00,13.6,8.8,30.23,NE,45,2.9,8.9,81,0.00,,,0.00,WUHU216HW,2013-12-19 11:20:00,
2013-12-19 04:25:00,13.2,8.2,30.23,NNE,23,4.9,6.2,80,0.00,,,0.00,WUHU216HW,2013-12-19 11:25:00,
2013-12-19 04:30:00,13.1,8.0,30.23,ENE,68,8.7,8.7,80,0.00,,,0.00,WUHU216HW,2013-12-19 11:30:00,
2013-12-19 04:35:00,12.9,7.8,30.24,ENE,68,2.4,8.7,80,0.00,,,0.00,WUHU216HW,2013-12-19 11:35:00,
2013-12-19 04:41:00,12.9,7.8,30.25,NE,45,1.3,7.6,80,0.00,,,0.00,WUHU216HW,2013-12-19 11:41:00,
2013-12-19 04:46:00,12.7,7.9,30.25,NE,45,2.6,6.0,81,0.00,,,0.00,WUHU216HW,2013-12-19 11:46:00,
2013-12-19 04:51:00,12.7,7.7,30.25,ENE,68,2.2,11.6,80,0.00,,,0.00,WUHU216HW,2013-12-19 11:51:00,
2013-12-19 04:56:00,12.7,7.7,30.25,NE,45,1.3,11.6,80,0.00,,,0.00,WUHU216HW,2013-12-19 11:56:00,
2013-12-19 05:01:00,12.9,7.5,30.25,ENE,68,4.4,8.5,79,0.00,,,0.00,WUHU216HW,2013-12-19 12:01:00,
2013-12-19 05:06:00,12.9,7.5,30.25,NE,45,8.5,8.5,79,0.00,,,0.00,WUHU216HW,2013-12-19 12:06:00,
2013-12-19 05:11:00,12.7,7.1,30.26,East,90,6.4,8.5,78,0.00,,,0.00,WUHU216HW,2013-12-19 12:11:00,
2013-12-19 05:16:00,12.9,7.0,30.25,NE,45,0.0,10.9,77,0.00,,,0.00,WUHU216HW,2013-12-19 12:16:00,
2013-12-19 05:21:00,12.7,6.8,30.26,ESE,113,4.9,10.9,77,0.00,,,0.00,WUHU216HW,2013-12-19 12:21:00,
2013-12-19 05:26:00,12.5,6.9,30.25,East,90,4.0,6.4,78,0.00,,,0.00,WUHU216HW,2013-12-19 12:26:00,
2013-12-19 05:31:00,12.7,7.1,30.27,ENE,68,0.0,7.3,78,0.00,,,0.00,WUHU216HW,2013-12-19 12:31:00,
2013-12-19 05:36:00,12.9,7.3,30.27,ESE,113,1.3,7.3,78,0.00,,,0.00,WUHU216HW,2013-12-19 12:36:00,
2013-12-19 05:41:00,13.1,7.4,30.27,East,90,2.6,8.5,78,0.00,,,0.00,WUHU216HW,2013-12-19 12:41:00,
2013-12-19 05:47:00,13.2,7.6,30.27,ESE,113,3.3,8.5,78,0.00,,,0.00,WUHU216HW,2013-12-19 12:47:00,
2013-12-19 05:52:00,13.1,7.4,30.27,ENE,68,0.8,5.8,78,0.00,,,0.00,WUHU216HW,2013-12-19 12:52:00,
2013-12-19 05:57:00,13.1,7.4,30.28,NE,45,3.1,6.9,78,0.00,,,0.00,WUHU216HW,2013-12-19 12:57:00,
2013-12-19 06:02:00,12.9,7.3,30.28,NNE,23,3.8,6.9,78,0.00,,,0.00,WUHU216HW,2013-12-19 13:02:00,
2013-12-19 06:07:00,12.7,7.1,30.28,East,90,0.0,7.8,78,0.00,,,0.00,WUHU216HW,2013-12-19 13:07:00,
2013-12-19 06:12:00,12.5,6.9,30.29,SSE,158,1.3,7.8,78,0.00,,,0.00,WUHU216HW,2013-12-19 13:12:00,
2013-12-19 06:17:00,12.2,6.5,30.29,East,90,2.6,3.3,78,0.00,,,0.00,WUHU216HW,2013-12-19 13:17:00,
2013-12-19 06:22:00,11.8,6.2,30.30,NE,45,0.0,3.3,78,0.00,,,0.00,WUHU216HW,2013-12-19 13:22:00,
2013-12-19 06:28:00,11.4,5.8,30.31,NNE,23,0.0,3.1,78,0.00,,,0.00,WUHU216HW,2013-12-19 13:28:00,
2013-12-19 06:33:00,10.9,5.7,30.30,NNE,23,0.0,2.4,79,0.00,,,0.00,WUHU216HW,2013-12-19 13:33:00,
2013-12-19 06:38:00,10.5,5.5,30.32,NE,45,0.4,2.9,80,0.00,,,0.00,WUHU216HW,2013-12-19 13:38:00,
2013-12-19 06:43:00,10.2,5.1,30.33,NE,45,3.5,3.5,80,0.00,,,0.00,WUHU216HW,2013-12-19 13:43:00,
2013-12-19 06:48:00,9.6,4.9,30.33,ENE,68,1.5,3.5,81,0.00,,,0.00,WUHU216HW,2013-12-19 13:48:00,
2013-12-19 06:53:00,9.5,4.8,30.33,East,90,0.0,2.2,81,0.00,,,0.00,WUHU216HW,2013-12-19 13:53:00,
2013-12-19 06:58:00,9.1,4.4,30.33,East,90,0.0,2.0,81,0.00,,,0.00,WUHU216HW,2013-12-19 13:58:00,
2013-12-19 07:03:00,8.9,4.5,30.33,East,90,0.0,0.8,82,0.00,,,0.00,WUHU216HW,2013-12-19 14:03:00,
2013-12-19 07:08:00,8.6,4.2,30.33,East,90,0.0,0.0,82,0.00,,,0.00,WUHU216HW,2013-12-19 14:08:00,
2013-12-19 07:13:00,8.7,4.4,30.33,East,90,0.0,2.6,82,0.00,,,0.00,WUHU216HW,2013-12-19 14:13:00,
2013-12-19 07:19:00,8.4,4.0,30.33,East,90,1.5,2.6,82,0.00,,,0.00,WUHU216HW,2013-12-19 14:19:00,
2013-12-19 07:24:00,8.4,4.0,30.33,East,90,0.0,2.4,82,0.00,,,0.00,WUHU216HW,2013-12-19 14:24:00,
2013-12-19 07:29:00,8.0,3.7,30.33,East,90,0.0,2.4,82,0.00,,,0.00,WUHU216HW,2013-12-19 14:29:00,
2013-12-19 07:34:00,8.0,3.7,30.34,ENE,68,0.0,2.2,82,0.00,,,0.00,WUHU216HW,2013-12-19 14:34:00,
2013-12-19 07:39:00,8.0,3.7,30.33,ENE,68,0.0,2.2,82,0.00,,,0.00,WUHU216HW,2013-12-19 14:39:00,
2013-12-19 07:44:00,7.8,3.5,30.33,ENE,68,0.0,0.8,82,0.00,,,0.00,WUHU216HW,2013-12-19 14:44:00,
2013-12-19 07:49:00,7.7,3.3,30.34,ENE,68,0.0,0.8,82,0.00,,,0.00,WUHU216HW,2013-12-19 14:49:00,
2013-12-19 07:54:00,7.5,3.1,30.34,ENE,68,0.0,0.0,82,0.00,,,0.00,WUHU216HW,2013-12-19 14:54:00,
2013-12-19 07:59:00,6.9,2.6,30.33,SE,135,3.1,3.1,82,0.00,,,0.00,WUHU216HW,2013-12-19 14:59:00,
2013-12-19 08:04:00,6.6,2.2,30.33,SE,135,0.0,3.1,82,0.00,,,0.00,WUHU216HW,2013-12-19 15:04:00,
2013-12-19 08:10:00,6.4,2.2,30.33,SE,135,0.0,2.9,82,0.00,,,0.00,WUHU216HW,2013-12-19 15:10:00,
2013-12-19 08:15:00,6.4,2.3,30.34,SE,135,0.0,0.0,83,0.00,,,0.00,WUHU216HW,2013-12-19 15:15:00,
2013-12-19 08:20:00,6.4,2.3,30.34,SE,135,0.0,0.0,83,0.00,,,0.00,WUHU216HW,2013-12-19 15:20:00,
2013-12-19 08:25:00,6.4,2.3,30.34,SE,135,0.0,0.0,83,0.00,,,0.00,WUHU216HW,2013-12-19 15:25:00,
2013-12-19 08:30:00,6.0,1.9,30.35,SE,135,0.0,0.0,83,0.00,,,0.00,WUHU216HW,2013-12-19 15:30:00,
2013-12-19 08:35:00,6.0,1.9,30.35,SE,135,0.0,0.0,83,0.00,,,0.00,WUHU216HW,2013-12-19 15:35:00,
2013-12-19 08:40:00,6.4,2.5,30.35,SE,135,0.0,0.0,84,0.00,,,0.00,WUHU216HW,2013-12-19 15:40:00,
2013-12-19 08:46:00,6.2,2.4,30.35,SE,135,0.0,0.0,84,0.00,,,0.00,WUHU216HW,2013-12-19 15:46:00,
2013-12-19 08:50:00,6.0,2.2,30.35,SSE,158,0.0,0.0,84,0.00,,,0.00,WUHU216HW,2013-12-19 15:50:00,
2013-12-19 08:56:00,6.6,2.7,30.35,SSE,158,2.4,2.9,84,0.00,,,0.00,WUHU216HW,2013-12-19 15:56:00,
2013-12-19 09:01:00,6.6,2.7,30.35,SSE,158,0.0,2.9,84,0.00,,,0.00,WUHU216HW,2013-12-19 16:01:00,
2013-12-19 09:06:00,6.4,2.5,30.35,ENE,68,1.7,2.6,84,0.00,,,0.00,WUHU216HW,2013-12-19 16:06:00,
2013-12-19 09:11:00,6.6,2.7,30.35,ENE,68,2.6,2.6,84,0.00,,,0.00,WUHU216HW,2013-12-19 16:11:00,
2013-12-19 09:16:00,6.9,3.1,30.36,ENE,68,0.0,2.6,84,0.00,,,0.00,WUHU216HW,2013-12-19 16:16:00,
2013-12-19 09:21:00,6.6,2.7,30.36,ENE,68,0.0,2.4,84,0.00,,,0.00,WUHU216HW,2013-12-19 16:21:00,
2013-12-19 09:26:00,6.9,3.1,30.37,ENE,68,0.0,0.0,84,0.00,,,0.00,WUHU216HW,2013-12-19 16:26:00,
2013-12-19 09:31:00,7.3,3.3,30.37,ENE,68,0.0,0.0,84,0.00,,,0.00,WUHU216HW,2013-12-19 16:31:00,
2013-12-19 09:37:00,7.1,3.3,30.37,ENE,68,0.0,0.0,84,0.00,,,0.00,WUHU216HW,2013-12-19 16:37:00,
2013-12-19 09:42:00,7.1,3.3,30.37,ENE,68,0.0,0.0,84,0.00,,,0.00,WUHU216HW,2013-12-19 16:42:00,
2013-12-19 09:47:00,7.1,3.3,30.36,ENE,68,0.0,0.0,84,0.00,,,0.00,WUHU216HW,2013-12-19 16:47:00,
2013-12-19 09:52:00,7.3,3.4,30.36,ENE,68,0.0,0.0,84,0.00,,,0.00,WUHU216HW,2013-12-19 16:52:00,
2013-12-19 09:57:00,7.3,3.4,30.36,ENE,68,0.0,0.0,84,0.00,,,0.00,WUHU216HW,2013-12-19 16:57:00,
2013-12-19 10:02:00,7.5,3.6,30.36,ENE,68,0.0,0.0,84,0.00,,,0.00,WUHU216HW,2013-12-19 17:02:00,
2013-12-19 10:07:00,7.3,3.4,30.37,ENE,68,0.0,0.0,84,0.00,,,0.00,WUHU216HW,2013-12-19 17:07:00,
2013-12-19 10:12:00,7.5,3.6,30.37,ENE,68,0.0,0.0,84,0.00,,,0.00,WUHU216HW,2013-12-19 17:12:00,
2013-12-19 10:17:00,7.5,3.6,30.37,ENE,68,0.0,0.0,84,0.00,,,0.00,WUHU216HW,2013-12-19 17:17:00,
2013-12-19 10:23:00,7.5,3.6,30.37,ENE,68,0.0,0.0,84,0.00,,,0.00,WUHU216HW,2013-12-19 17:23:00,
2013-12-19 10:28:00,7.7,3.8,30.38,ENE,68,0.0,0.0,84,0.00,,,0.00,WUHU216HW,2013-12-19 17:28:00,
2013-12-19 10:33:00,8.0,4.2,30.38,ENE,68,0.0,0.0,84,0.00,,,0.00,WUHU216HW,2013-12-19 17:33:00,
2013-12-19 10:38:00,8.2,4.3,30.38,ENE,68,0.0,0.0,84,0.00,,,0.00,WUHU216HW,2013-12-19 17:38:00,
2013-12-19 10:43:00,8.4,4.5,30.38,ENE,68,0.0,0.0,84,0.00,,,0.00,WUHU216HW,2013-12-19 17:43:00,
2013-12-19 10:48:00,8.6,4.5,30.38,ENE,68,0.0,0.0,84,0.00,,,0.00,WUHU216HW,2013-12-19 17:48:00,
2013-12-19 10:53:00,8.6,4.7,30.38,ENE,68,0.0,0.0,84,0.00,,,0.00,WUHU216HW,2013-12-19 17:53:00,
2013-12-19 10:58:00,8.7,4.9,30.38,ENE,68,0.0,0.0,84,0.00,,,0.00,WUHU216HW,2013-12-19 17:58:00,
2013-12-19 11:03:00,8.9,5.0,30.38,ENE,68,0.0,0.0,84,0.00,,,0.00,WUHU216HW,2013-12-19 18:03:00,
2013-12-19 11:06:00,9.1,5.2,30.38,ENE,68,0.0,0.0,84,0.00,,,0.00,WUHU216HW,2013-12-19 18:06:00,
2013-12-19 11:11:00,9.5,5.5,30.38,ENE,68,0.0,0.0,84,0.00,,,0.00,WUHU216HW,2013-12-19 18:11:00,
2013-12-19 11:16:00,9.6,5.7,30.37,ENE,68,0.0,0.0,84,0.00,,,0.00,WUHU216HW,2013-12-19 18:16:00,
2013-12-19 11:21:00,10.2,6.2,30.37,ENE,68,0.0,0.0,84,0.00,,,0.00,WUHU216HW,2013-12-19 18:21:00,
2013-12-19 11:26:00,10.5,6.3,30.36,ENE,68,0.0,0.0,83,0.00,,,0.00,WUHU216HW,2013-12-19 18:26:00,
2013-12-19 11:31:00,10.5,6.3,30.37,ENE,68,1.7,1.7,83,0.00,,,0.00,WUHU216HW,2013-12-19 18:31:00,
2013-12-19 11:37:00,10.7,6.0,30.37,ENE,68,1.3,2.2,82,0.00,,,0.00,WUHU216HW,2013-12-19 18:37:00,
2013-12-19 11:42:00,10.7,6.2,30.37,ENE,68,0.0,2.2,82,0.00,,,0.00,WUHU216HW,2013-12-19 18:42:00,
2013-12-19 11:47:00,10.9,6.4,30.37,ENE,68,0.0,1.7,82,0.00,,,0.00,WUHU216HW,2013-12-19 18:47:00,
2013-12-19 11:52:00,10.9,6.4,30.37,ENE,68,0.0,2.9,82,0.00,,,0.00,WUHU216HW,2013-12-19 18:52:00,
2013-12-19 11:57:00,11.3,6.5,30.37,ENE,68,0.0,2.9,81,0.00,,,0.00,WUHU216HW,2013-12-19 18:57:00,
2013-12-19 12:02:00,11.6,6.8,30.36,ENE,68,0.0,0.0,81,0.00,,,0.00,WUHU216HW,2013-12-19 19:02:00,
2013-12-19 12:07:00,12.0,6.9,30.36,ENE,68,0.0,0.0,80,0.00,,,0.00,WUHU216HW,2013-12-19 19:07:00,
2013-12-19 12:12:00,12.5,7.5,30.36,ENE,68,0.0,0.0,80,0.00,,,0.00,WUHU216HW,2013-12-19 19:12:00,
2013-12-19 12:17:00,12.9,7.5,30.36,ENE,68,0.0,0.0,79,0.00,,,0.00,WUHU216HW,2013-12-19 19:17:00,
2013-12-19 12:22:00,13.2,7.6,30.36,ENE,68,0.0,0.0,78,0.00,,,0.00,WUHU216HW,2013-12-19 19:22:00,
2013-12-19 12:28:00,13.6,7.4,30.36,ENE,68,0.0,0.0,76,0.00,,,0.00,WUHU216HW,2013-12-19 19:28:00,
2013-12-19 12:33:00,13.8,7.3,30.36,ENE,68,0.0,1.5,75,0.00,,,0.00,WUHU216HW,2013-12-19 19:33:00,
2013-12-19 12:38:00,14.1,7.3,30.36,ENE,68,0.0,1.5,74,0.00,,,0.00,WUHU216HW,2013-12-19 19:38:00,
2013-12-19 12:43:00,14.1,7.1,30.36,ENE,68,1.3,2.0,73,0.00,,,0.00,WUHU216HW,2013-12-19 19:43:00,
2013-12-19 12:48:00,14.3,7.2,30.36,ENE,68,0.0,2.0,73,0.00,,,0.00,WUHU216HW,2013-12-19 19:48:00,
2013-12-19 12:53:00,14.7,7.6,30.37,ENE,68,0.0,0.0,73,0.00,,,0.00,WUHU216HW,2013-12-19 19:53:00,
2013-12-19 12:58:00,14.9,7.4,30.37,ENE,68,0.0,0.0,72,0.00,,,0.00,WUHU216HW,2013-12-19 19:58:00,
2013-12-19 13:03:00,14.9,7.4,30.36,ENE,68,0.0,0.0,72,0.00,,,0.00,WUHU216HW,2013-12-19 20:03:00,
2013-12-19 13:08:00,15.2,7.8,30.36,ENE,68,0.0,0.0,72,0.00,,,0.00,WUHU216HW,2013-12-19 20:08:00,
2013-12-19 13:13:00,15.4,8.2,30.36,ENE,68,0.0,0.0,73,0.00,,,0.00,WUHU216HW,2013-12-19 20:13:00,
2013-12-19 13:19:00,15.8,8.6,30.36,ESE,113,0.0,0.0,73,0.00,,,0.00,WUHU216HW,2013-12-19 20:19:00,
2013-12-19 13:23:00,16.1,8.9,30.35,SW,225,0.0,0.0,73,0.00,,,0.00,WUHU216HW,2013-12-19 20:23:00,
2013-12-19 13:29:00,16.3,8.8,30.35,SW,225,0.0,0.0,72,0.00,,,0.00,WUHU216HW,2013-12-19 20:29:00,
2013-12-19 13:34:00,16.3,8.8,30.34,SW,225,0.0,0.0,72,0.00,,,0.00,WUHU216HW,2013-12-19 20:34:00,
2013-12-19 13:39:00,16.5,8.7,30.34,WNW,293,0.0,0.0,71,0.00,,,0.00,WUHU216HW,2013-12-19 20:39:00,
2013-12-19 13:44:00,16.7,8.8,30.34,NW,315,0.0,0.0,71,0.00,,,0.00,WUHU216HW,2013-12-19 20:44:00,
2013-12-19 13:49:00,16.7,8.8,30.33,NW,315,0.0,0.0,71,0.00,,,0.00,WUHU216HW,2013-12-19 20:49:00,
2013-12-19 13:54:00,16.5,8.7,30.33,NW,315,0.0,0.8,71,0.00,,,0.00,WUHU216HW,2013-12-19 20:54:00,
2013-12-19 13:59:00,16.7,8.8,30.33,North,0,1.5,2.6,71,0.00,,,0.00,WUHU216HW,2013-12-19 20:59:00,
2013-12-19 14:04:00,16.8,8.7,30.33,North,0,0.0,2.6,70,0.00,,,0.00,WUHU216HW,2013-12-19 21:04:00,
2013-12-19 14:10:00,16.8,8.7,30.33,North,0,0.0,0.0,70,0.00,,,0.00,WUHU216HW,2013-12-19 21:10:00,
2013-12-19 14:15:00,17.2,9.4,30.33,North,0,0.0,0.0,71,0.00,,,0.00,WUHU216HW,2013-12-19 21:15:00,
2013-12-19 14:20:00,17.7,10.2,30.33,North,0,0.0,0.0,72,0.00,,,0.00,WUHU216HW,2013-12-19 21:20:00,
2013-12-19 14:26:00,18.1,10.5,30.34,North,0,0.0,0.0,72,0.00,,,0.00,WUHU216HW,2013-12-19 21:26:00,
2013-12-19 14:33:00,18.3,10.7,30.34,North,0,0.0,0.0,72,0.00,,,0.00,WUHU216HW,2013-12-19 21:33:00,
2013-12-19 14:40:00,18.1,10.2,30.33,NW,315,2.0,2.9,71,0.00,,,0.00,WUHU216HW,2013-12-19 21:40:00,
2013-12-19 14:46:00,18.1,10.1,30.33,NW,315,0.0,2.9,70,0.00,,,0.00,WUHU216HW,2013-12-19 21:46:00,
2013-12-19 14:53:00,18.1,9.9,30.32,NW,315,0.0,0.0,70,0.00,,,0.00,WUHU216HW,2013-12-19 21:53:00,
2013-12-19 14:58:00,18.1,9.6,30.32,NW,315,0.0,0.0,69,0.00,,,0.00,WUHU216HW,2013-12-19 21:58:00,
2013-12-19 15:03:00,18.1,9.9,30.31,NW,315,0.0,0.0,70,0.00,,,0.00,WUHU216HW,2013-12-19 22:03:00,
2013-12-19 15:08:00,18.1,9.6,30.32,NW,315,0.0,0.0,70,0.00,,,0.00,WUHU216HW,2013-12-19 22:08:00,
2013-12-19 15:13:00,17.9,9.8,30.32,NW,315,0.0,0.0,70,0.00,,,0.00,WUHU216HW,2013-12-19 22:13:00,
2013-12-19 15:18:00,17.7,9.9,30.33,NW,315,0.0,0.0,71,0.00,,,0.00,WUHU216HW,2013-12-19 22:18:00,
2013-12-19 15:23:00,17.4,9.6,30.33,NW,315,0.0,0.0,71,0.00,,,0.00,WUHU216HW,2013-12-19 22:23:00,
2013-12-19 15:28:00,17.2,9.4,30.34,NNE,23,2.0,3.3,71,0.00,,,0.00,WUHU216HW,2013-12-19 22:28:00,
2013-12-19 15:33:00,16.7,8.8,30.35,NNE,23,0.0,3.3,71,0.00,,,0.00,WUHU216HW,2013-12-19 22:33:00,
2013-12-19 15:38:00,16.3,8.8,30.35,NNE,23,0.0,2.0,72,0.00,,,0.00,WUHU216HW,2013-12-19 22:38:00,
2013-12-19 15:43:00,16.1,8.6,30.35,NNE,23,0.0,2.0,72,0.00,,,0.00,WUHU216HW,2013-12-19 22:43:00,
2013-12-19 15:49:00,16.1,8.9,30.35,NNE,23,0.0,0.0,73,0.00,,,0.00,WUHU216HW,2013-12-19 22:49:00,
2013-12-19 15:54:00,16.3,9.1,30.35,NNE,23,0.0,0.0,73,0.00,,,0.00,WUHU216HW,2013-12-19 22:54:00,
2013-12-19 15:59:00,16.3,9.1,30.35,NNE,23,0.0,0.0,73,0.00,,,0.00,WUHU216HW,2013-12-19 22:59:00,
2013-12-19 16:04:00,16.3,9.4,30.35,NNE,23,0.0,0.0,74,0.00,,,0.00,WUHU216HW,2013-12-19 23:04:00,
2013-12-19 16:09:00,16.7,9.7,30.35,NNE,23,0.0,0.0,74,0.00,,,0.00,WUHU216HW,2013-12-19 23:09:00,
2013-12-19 16:14:00,16.8,9.9,30.35,NNE,23,0.0,0.0,74,0.00,,,0.00,WUHU216HW,2013-12-19 23:14:00,
2013-12-19 16:19:00,16.5,9.6,30.35,NNE,23,0.0,0.0,74,0.00,,,0.00,WUHU216HW,2013-12-19 23:19:00,
2013-12-19 16:24:00,16.3,9.7,30.35,NNE,23,0.0,0.0,75,0.00,,,0.00,WUHU216HW,2013-12-19 23:24:00,
2013-12-19 16:30:00,15.9,9.3,30.35,NNE,23,0.0,0.0,75,0.00,,,0.00,WUHU216HW,2013-12-19 23:30:00,
2013-12-19 16:35:00,15.6,9.0,30.35,NNE,23,0.0,0.0,75,0.00,,,0.00,WUHU216HW,2013-12-19 23:35:00,
2013-12-19 16:40:00,15.6,9.0,30.35,NNE,23,0.0,0.0,75,0.00,,,0.00,WUHU216HW,2013-12-19 23:40:00,
2013-12-19 16:45:00,15.0,8.8,30.34,NNE,23,0.0,0.0,76,0.00,,,0.00,WUHU216HW,2013-12-19 23:45:00,
2013-12-19 16:50:00,14.9,8.6,30.34,NNE,23,0.0,0.0,76,0.00,,,0.00,WUHU216HW,2013-12-19 23:50:00,
2013-12-19 16:55:00,14.5,8.3,30.34,NNE,23,0.0,0.0,76,0.00,,,0.00,WUHU216HW,2013-12-19 23:55:00,
2013-12-19 17:00:00,14.1,8.2,30.33,NNE,23,0.0,0.0,77,0.00,,,0.00,WUHU216HW,2013-12-20 00:00:00,
2013-12-19 17:05:00,13.6,7.7,30.33,NNE,23,0.0,0.0,77,0.00,,,0.00,WUHU216HW,2013-12-20 00:05:00,
2013-12-19 17:10:00,13.1,7.1,30.33,NNE,23,0.0,0.0,77,0.00,,,0.00,WUHU216HW,2013-12-20 00:10:00,
2013-12-19 17:15:00,12.7,6.8,30.33,NNE,23,0.0,0.0,77,0.00,,,0.00,WUHU216HW,2013-12-20 00:15:00,
2013-12-19 17:21:00,12.0,6.4,30.33,NNE,23,0.0,0.0,78,0.00,,,0.00,WUHU216HW,2013-12-20 00:21:00,
2013-12-19 17:26:00,11.8,6.2,30.33,NNE,23,0.0,0.0,78,0.00,,,0.00,WUHU216HW,2013-12-20 00:26:00,
2013-12-19 17:31:00,11.3,5.9,30.33,NNE,23,0.0,0.0,79,0.00,,,0.00,WUHU216HW,2013-12-20 00:31:00,
2013-12-19 17:36:00,11.1,5.7,30.32,NNE,23,0.0,0.0,79,0.00,,,0.00,WUHU216HW,2013-12-20 00:36:00,
2013-12-19 17:41:00,10.7,5.7,30.33,NNE,23,0.0,0.0,80,0.00,,,0.00,WUHU216HW,2013-12-20 00:41:00,
2013-12-19 17:46:00,10.5,5.5,30.33,NNE,23,0.0,0.0,80,0.00,,,0.00,WUHU216HW,2013-12-20 00:46:00,
2013-12-19 17:51:00,10.2,5.4,30.33,NNE,23,0.0,0.0,81,0.00,,,0.00,WUHU216HW,2013-12-20 00:51:00,
2013-12-19 17:56:00,10.0,5.2,30.33,NNE,23,0.0,0.0,81,0.00,,,0.00,WUHU216HW,2013-12-20 00:56:00,
2013-12-19 18:02:00,10.0,5.2,30.33,NNE,23,0.0,0.0,81,0.00,,,0.00,WUHU216HW,2013-12-20 01:02:00,
2013-12-19 18:07:00,10.2,5.4,30.33,NNE,23,0.0,0.0,81,0.00,,,0.00,WUHU216HW,2013-12-20 01:07:00,
2013-12-19 18:12:00,10.0,5.5,30.33,NNE,23,0.0,0.0,82,0.00,,,0.00,WUHU216HW,2013-12-20 01:12:00,
2013-12-19 18:17:00,10.2,5.4,30.33,NNE,23,0.0,0.0,81,0.00,,,0.00,WUHU216HW,2013-12-20 01:17:00,
2013-12-19 18:22:00,10.5,6.0,30.33,NNE,23,0.0,0.0,82,0.00,,,0.00,WUHU216HW,2013-12-20 01:22:00,
2013-12-19 18:27:00,10.9,6.4,30.33,NNE,23,0.0,0.0,82,0.00,,,0.00,WUHU216HW,2013-12-20 01:27:00,
2013-12-19 18:32:00,11.1,6.6,30.33,NNE,23,0.0,0.0,82,0.00,,,0.00,WUHU216HW,2013-12-20 01:32:00,
2013-12-19 18:37:00,11.3,6.8,30.32,NNE,23,0.0,0.0,82,0.00,,,0.00,WUHU216HW,2013-12-20 01:37:00,
2013-12-19 18:43:00,11.3,6.8,30.32,NNE,23,2.2,2.2,82,0.00,,,0.00,WUHU216HW,2013-12-20 01:43:00,
2013-12-19 18:48:00,11.4,6.9,30.31,NNE,23,0.0,2.2,82,0.00,,,0.00,WUHU216HW,2013-12-20 01:48:00,
2013-12-19 18:53:00,11.4,6.7,30.31,NNE,23,0.0,3.3,81,0.00,,,0.00,WUHU216HW,2013-12-20 01:53:00,
2013-12-19 18:58:00,11.4,6.7,30.31,NNE,23,0.0,3.3,81,0.00,,,0.00,WUHU216HW,2013-12-20 01:58:00,
2013-12-19 19:03:00,11.3,6.5,30.31,NNE,23,0.0,2.2,81,0.00,,,0.00,WUHU216HW,2013-12-20 02:03:00,
2013-12-19 19:08:00,11.1,6.3,30.32,NE,45,2.6,2.6,81,0.00,,,0.00,WUHU216HW,2013-12-20 02:08:00,
2013-12-19 19:13:00,11.8,7.0,30.31,NE,45,0.0,2.6,81,0.00,,,0.00,WUHU216HW,2013-12-20 02:13:00,
2013-12-19 19:18:00,12.0,7.2,30.31,NE,45,0.0,3.5,81,0.00,,,0.00,WUHU216HW,2013-12-20 02:18:00,
2013-12-19 19:23:00,12.2,7.4,30.31,NE,45,1.7,3.5,81,0.00,,,0.00,WUHU216HW,2013-12-20 02:23:00,
2013-12-19 19:28:00,12.0,6.9,30.31,NE,45,0.0,2.9,80,0.00,,,0.00,WUHU216HW,2013-12-20 02:28:00,
2013-12-19 19:33:00,12.0,7.2,30.31,NE,45,0.0,2.4,81,0.00,,,0.00,WUHU216HW,2013-12-20 02:33:00,
2013-12-19 19:39:00,12.0,7.2,30.31,NE,45,0.0,2.4,81,0.00,,,0.00,WUHU216HW,2013-12-20 02:39:00,
2013-12-19 19:44:00,11.8,7.0,30.31,NE,45,2.4,2.4,81,0.00,,,0.00,WUHU216HW,2013-12-20 02:44:00,
2013-12-19 19:49:00,12.0,7.2,30.31,NE,45,0.0,3.3,81,0.00,,,0.00,WUHU216HW,2013-12-20 02:49:00,
2013-12-19 19:54:00,12.0,7.2,30.30,NE,45,0.0,3.3,81,0.00,,,0.00,WUHU216HW,2013-12-20 02:54:00,
2013-12-19 19:59:00,12.0,7.2,30.30,NE,45,0.0,0.0,81,0.00,,,0.00,WUHU216HW,2013-12-20 02:59:00,
2013-12-19 20:04:00,12.0,7.5,30.30,NE,45,0.0,0.0,82,0.00,,,0.00,WUHU216HW,2013-12-20 03:04:00,
2013-12-19 20:09:00,12.0,7.5,30.30,NE,45,0.0,0.0,82,0.00,,,0.00,WUHU216HW,2013-12-20 03:09:00,
2013-12-19 20:14:00,12.0,7.5,30.30,NE,45,0.0,0.0,82,0.00,,,0.00,WUHU216HW,2013-12-20 03:14:00,
2013-12-19 20:19:00,11.8,7.3,30.29,NE,45,0.0,0.0,82,0.00,,,0.00,WUHU216HW,2013-12-20 03:19:00,
2013-12-19 20:24:00,11.6,7.1,30.30,NE,45,0.0,0.0,82,0.00,,,0.00,WUHU216HW,2013-12-20 03:24:00,
2013-12-19 20:29:00,12.0,7.5,30.29,NE,45,0.0,0.0,82,0.00,,,0.00,WUHU216HW,2013-12-20 03:29:00,
2013-12-19 20:35:00,12.0,7.5,30.29,NE,45,0.0,0.0,82,0.00,,,0.00,WUHU216HW,2013-12-20 03:35:00,
2013-12-19 20:40:00,12.3,7.8,30.29,NE,45,0.0,0.0,82,0.00,,,0.00,WUHU216HW,2013-12-20 03:40:00,
2013-12-19 20:45:00,12.3,7.8,30.29,NE,45,0.0,0.0,82,0.00,,,0.00,WUHU216HW,2013-12-20 03:45:00,
2013-12-19 20:50:00,12.2,7.7,30.29,NE,45,0.0,0.0,82,0.00,,,0.00,WUHU216HW,2013-12-20 03:50:00,
2013-12-19 20:55:00,12.0,7.5,30.29,NE,45,0.0,0.0,82,0.00,,,0.00,WUHU216HW,2013-12-20 03:55:00,
2013-12-19 21:00:00,12.0,7.5,30.29,NE,45,0.0,0.0,82,0.00,,,0.00,WUHU216HW,2013-12-20 04:00:00,
2013-12-19 21:05:00,12.0,7.5,30.29,NE,45,0.0,0.0,83,0.00,,,0.00,WUHU216HW,2013-12-20 04:05:00,
2013-12-19 21:10:00,12.0,7.7,30.29,NE,45,0.0,0.0,83,0.00,,,0.00,WUHU216HW,2013-12-20 04:10:00,
2013-12-19 21:15:00,12.2,7.9,30.29,NE,45,0.0,0.0,83,0.00,,,0.00,WUHU216HW,2013-12-20 04:15:00,
2013-12-19 21:20:00,12.3,8.1,30.29,NE,45,0.0,0.0,83,0.00,,,0.00,WUHU216HW,2013-12-20 04:20:00,
2013-12-19 21:26:00,12.2,7.9,30.29,NE,45,0.0,0.0,83,0.00,,,0.00,WUHU216HW,2013-12-20 04:26:00,
2013-12-19 21:31:00,12.3,8.1,30.29,NE,45,0.0,0.0,83,0.00,,,0.00,WUHU216HW,2013-12-20 04:31:00,
2013-12-19 21:36:00,12.3,8.1,30.28,NE,45,0.0,0.0,83,0.00,,,0.00,WUHU216HW,2013-12-20 04:36:00,
2013-12-19 21:41:00,12.5,8.3,30.28,NE,45,0.0,0.0,83,0.00,,,0.00,WUHU216HW,2013-12-20 04:41:00,
2013-12-19 21:46:00,12.7,8.7,30.28,NE,45,0.0,0.0,84,0.00,,,0.00,WUHU216HW,2013-12-20 04:46:00,
2013-12-19 21:51:00,12.9,8.6,30.28,NE,45,0.0,2.2,83,0.00,,,0.00,WUHU216HW,2013-12-20 04:51:00,
2013-12-19 21:56:00,12.9,8.6,30.28,NE,45,0.0,2.2,83,0.00,,,0.00,WUHU216HW,2013-12-20 04:56:00,
2013-12-19 22:01:00,13.1,8.8,30.29,NE,45,0.0,0.0,83,0.00,,,0.00,WUHU216HW,2013-12-20 05:01:00,
2013-12-19 22:02:00,13.1,8.8,30.29,NE,45,0.0,0.0,83,0.00,,,0.00,WUHU216HW,2013-12-20 05:02:00,
2013-12-19 22:07:00,13.1,8.8,30.28,NE,45,0.0,0.0,83,0.00,,,0.00,WUHU216HW,2013-12-20 05:07:00,
2013-12-19 22:12:00,13.1,8.8,30.28,NE,45,0.0,0.0,83,0.00,,,0.00,WUHU216HW,2013-12-20 05:12:00,
2013-12-19 22:17:00,13.1,8.8,30.29,NE,45,0.0,0.0,83,0.00,,,0.00,WUHU216HW,2013-12-20 05:17:00,
2013-12-19 22:22:00,13.1,8.8,30.29,NE,45,0.0,0.0,83,0.00,,,0.00,WUHU216HW,2013-12-20 05:22:00,
2013-12-19 22:27:00,13.2,9.3,30.28,NE,45,0.0,0.0,84,0.00,,,0.00,WUHU216HW,2013-12-20 05:27:00,
2013-12-19 22:32:00,13.2,9.3,30.28,NE,45,0.0,0.0,84,0.00,,,0.00,WUHU216HW,2013-12-20 05:32:00,
2013-12-19 22:38:00,13.2,9.3,30.27,NE,45,0.0,0.0,84,0.00,,,0.00,WUHU216HW,2013-12-20 05:38:00,
2013-12-19 22:43:00,13.1,8.8,30.28,NE,45,0.0,0.0,83,0.00,,,0.00,WUHU216HW,2013-12-20 05:43:00,
2013-12-19 22:48:00,13.1,8.8,30.27,NE,45,0.0,0.0,83,0.00,,,0.00,WUHU216HW,2013-12-20 05:48:00,
2013-12-19 22:53:00,12.9,8.6,30.26,NE,45,0.0,0.0,83,0.00,,,0.00,WUHU216HW,2013-12-20 05:53:00,
2013-12-19 22:58:00,12.7,8.5,30.26,NE,45,0.0,0.0,83,0.00,,,0.00,WUHU216HW,2013-12-20 05:58:00,
2013-12-19 23:03:00,12.7,8.5,30.26,NE,45,0.0,0.0,83,0.00,,,0.00,WUHU216HW,2013-12-20 06:03:00,
2013-12-19 23:08:00,12.7,8.7,30.25,NE,45,0.0,0.0,84,0.00,,,0.00,WUHU216HW,2013-12-20 06:08:00,
2013-12-19 23:14:00,12.7,8.7,30.25,NE,45,0.0,0.0,84,0.00,,,0.00,WUHU216HW,2013-12-20 06:14:00,
2013-12-19 23:19:00,12.7,8.7,30.25,NE,45,0.0,0.0,84,0.00,,,0.00,WUHU216HW,2013-12-20 06:19:00,
2013-12-19 23:24:00,12.5,8.6,30.25,NE,45,0.0,0.0,84,0.00,,,0.00,WUHU216HW,2013-12-20 06:24:00,
2013-12-19 23:29:00,12.3,8.4,30.24,NE,45,0.0,0.0,84,0.00,,,0.00,WUHU216HW,2013-12-20 06:29:00,
2013-12-19 23:34:00,12.2,8.2,30.25,NE,45,0.0,0.0,84,0.00,,,0.00,WUHU216HW,2013-12-20 06:34:00,
2013-12-19 23:39:00,12.0,8.0,30.25,NE,45,0.0,2.4,84,0.00,,,0.00,WUHU216HW,2013-12-20 06:39:00,
2013-12-19 23:44:00,11.8,7.8,30.25,NE,45,0.0,2.4,84,0.00,,,0.00,WUHU216HW,2013-12-20 06:44:00,
2013-12-19 23:49:00,11.6,7.7,30.25,NE,45,0.0,0.0,84,0.00,,,0.00,WUHU216HW,2013-12-20 06:49:00,
2013-12-19 23:55:00,11.4,7.5,30.24,NE,45,0.0,0.0,84,0.00,,,0.00,WUHU216HW,2013-12-20 06:55:00,